createdAt,value
2016-12-19T00:00:55.201Z,68.26
2016-12-19T00:01:55.529Z,67.31
2016-12-19T00:02:55.543Z,67.69
2016-12-19T00:03:55.240Z,67.31
2016-12-19T00:04:55.255Z,67.69
2016-12-19T00:05:55.588Z,68.07
2016-12-19T00:06:55.597Z,67.79
2016-12-19T00:07:55.614Z,67.88
2016-12-19T00:08:55.311Z,68.07
2016-12-19T00:09:55.326Z,68.35
2016-12-19T00:10:55.655Z,68.44
2016-12-19T00:11:55.666Z,67.59
2016-12-19T00:12:55.372Z,66.93
2016-12-19T00:13:55.695Z,67.69
2016-12-19T00:14:55.714Z,67.69
2016-12-19T00:15:55.728Z,67.12
2016-12-19T00:16:55.736Z,67.5
2016-12-19T00:17:55.441Z,67.97
2016-12-19T00:18:55.480Z,67.65
2016-12-19T00:19:55.784Z,68.32
2016-12-19T00:20:55.797Z,68.51
2016-12-19T00:21:55.814Z,68.6
2016-12-19T00:22:55.510Z,67.75
2016-12-19T00:23:55.525Z,67.94
2016-12-19T00:24:55.540Z,68.32
2016-12-19T00:25:55.869Z,68.41
2016-12-19T00:26:55.881Z,68.04
2016-12-19T00:27:55.912Z,68.41
2016-12-19T00:28:55.607Z,68.51
2016-12-19T00:29:55.608Z,68.51
2016-12-19T00:30:55.939Z,68.6
2016-12-19T00:31:55.638Z,68.23
2016-12-19T00:32:55.652Z,68.23
2016-12-19T00:33:55.982Z,68.54
2016-12-19T00:34:56.000Z,68.54
2016-12-19T00:35:55.697Z,68.16
2016-12-19T00:36:55.708Z,67.69
2016-12-19T00:37:56.039Z,67.79
2016-12-19T00:38:56.052Z,68.07
2016-12-19T00:39:55.750Z,67.97
2016-12-19T00:40:55.760Z,68.44
2016-12-19T00:41:55.785Z,68.92
2016-12-19T00:42:55.797Z,67.97
2016-12-19T00:44:10.695Z,67.79
2016-12-19T00:44:55.820Z,68.26
2016-12-19T00:45:55.834Z,67.88
2016-12-19T00:46:55.849Z,67.4
2016-12-19T00:47:55.862Z,67.4
2016-12-19T00:48:55.876Z,67.69
2016-12-19T00:49:55.890Z,67.59
2016-12-19T00:50:55.904Z,67.59
2016-12-19T00:51:55.918Z,67.65
2016-12-19T00:52:55.931Z,67.59
2016-12-19T00:53:56.266Z,68.54
2016-12-19T00:54:56.279Z,68.54
2016-12-19T00:55:55.973Z,68.07
2016-12-19T00:56:56.325Z,67.4
2016-12-19T00:57:56.319Z,67.5
2016-12-19T00:58:56.334Z,67.4
2016-12-19T00:59:56.034Z,67.5
2016-12-19T01:00:56.360Z,68.44
2016-12-19T01:01:56.380Z,68.07
2016-12-19T01:02:56.073Z,68.16
2016-12-19T01:03:56.212Z,67.97
2016-12-19T01:04:56.419Z,68.32
2016-12-19T01:05:56.430Z,67.79
2016-12-19T01:06:56.450Z,67.65
2016-12-19T01:07:56.460Z,68.07
2016-12-19T01:08:56.159Z,68.07
2016-12-19T01:09:56.487Z,67.69
2016-12-19T01:10:56.198Z,67.31
2016-12-19T01:11:56.210Z,67.46
2016-12-19T01:12:56.532Z,67.46
2016-12-19T01:13:56.227Z,67.75
2016-12-19T01:14:56.243Z,67.4
2016-12-19T01:15:56.458Z,67.85
2016-12-19T01:16:56.590Z,67.12
2016-12-19T01:17:56.283Z,67.75
2016-12-19T01:18:56.614Z,67.27
2016-12-19T01:19:56.630Z,67.27
2016-12-19T01:20:56.641Z,67.27
2016-12-19T01:21:56.675Z,66.99
2016-12-19T01:22:56.353Z,67.75
2016-12-19T01:23:56.685Z,67.85
2016-12-19T01:24:56.390Z,67.27
2016-12-19T01:25:56.397Z,67.46
2016-12-19T01:26:56.726Z,68.04
2016-12-19T01:27:56.424Z,68.32
2016-12-19T01:28:56.754Z,68.7
2016-12-19T01:29:56.765Z,67.88
2016-12-19T01:30:56.466Z,67.46
2016-12-19T01:31:56.479Z,67.75
2016-12-19T01:32:56.501Z,67.46
2016-12-19T01:33:56.823Z,67.85
2016-12-19T01:34:56.520Z,67.65
2016-12-19T01:35:56.534Z,68.04
2016-12-19T01:36:56.549Z,67.46
2016-12-19T01:37:56.563Z,67.5
2016-12-19T01:38:56.577Z,67.69
2016-12-19T01:39:56.611Z,67.21
2016-12-19T01:40:56.623Z,67.12
2016-12-19T01:41:56.936Z,66.89
2016-12-19T01:42:56.634Z,67.56
2016-12-19T01:43:56.646Z,68.32
2016-12-19T01:44:56.984Z,68.13
2016-12-19T01:45:56.681Z,68.13
2016-12-19T01:46:57.006Z,68.7
2016-12-19T01:47:57.017Z,68.23
2016-12-19T01:48:56.718Z,67.85
2016-12-19T01:49:57.048Z,67.56
2016-12-19T01:50:56.744Z,67.94
2016-12-19T01:51:56.760Z,67.46
2016-12-19T01:52:56.775Z,68.13
2016-12-19T01:53:56.787Z,68.23
2016-12-19T01:54:57.125Z,68.41
2016-12-19T01:55:57.135Z,68.32
2016-12-19T01:56:56.831Z,68.41
2016-12-19T01:57:56.842Z,69.08
2016-12-19T01:58:57.176Z,69.46
2016-12-19T01:59:56.874Z,69.27
2016-12-19T02:00:56.887Z,69.65
2016-12-19T02:01:56.900Z,69.61
2016-12-19T02:02:56.912Z,69.52
2016-12-19T02:03:57.243Z,69.36
2016-12-19T02:04:56.940Z,69.46
2016-12-19T02:05:57.270Z,69.08
2016-12-19T02:06:57.285Z,68.51
2016-12-19T02:07:57.298Z,68.6
2016-12-19T02:08:57.311Z,68.51
2016-12-19T02:09:57.326Z,68.51
2016-12-19T02:10:57.339Z,69.27
2016-12-19T02:11:57.355Z,68.89
2016-12-19T02:12:57.366Z,69.08
2016-12-19T02:13:57.379Z,68.79
2016-12-19T02:14:57.083Z,69.08
2016-12-19T02:15:57.411Z,69.27
2016-12-19T02:16:57.115Z,69.55
2016-12-19T02:17:57.435Z,69.93
2016-12-19T02:18:57.453Z,69.74
2016-12-19T02:19:57.148Z,69.36
2016-12-19T02:20:57.165Z,69.46
2016-12-19T02:21:57.492Z,69.46
2016-12-19T02:22:57.192Z,69.08
2016-12-19T02:23:57.519Z,69.17
2016-12-19T02:24:57.219Z,68.98
2016-12-19T02:25:57.231Z,69.08
2016-12-19T02:27:57.257Z,69.04
2016-12-19T02:28:57.587Z,69.42
2016-12-19T02:29:57.602Z,69.55
2016-12-19T02:30:57.317Z,69.27
2016-12-19T02:31:57.324Z,68.32
2016-12-19T02:32:57.327Z,68.41
2016-12-19T02:33:57.658Z,68.51
2016-12-19T02:34:57.673Z,68.04
2016-12-19T02:35:57.369Z,68.41
2016-12-19T02:36:57.384Z,68.41
2016-12-19T02:37:57.712Z,68.23
2016-12-19T02:38:57.728Z,68.13
2016-12-19T02:39:57.429Z,68.13
2016-12-19T02:40:57.436Z,68.41
2016-12-19T02:41:57.766Z,69.08
2016-12-19T02:42:57.467Z,68.7
2016-12-19T02:43:57.479Z,69.17
2016-12-19T02:44:57.819Z,68.41
2016-12-19T02:45:57.825Z,68.6
2016-12-19T02:46:57.836Z,68.04
2016-12-19T02:47:57.852Z,68.41
2016-12-19T02:48:57.879Z,68.51
2016-12-19T02:49:57.564Z,68.41
2016-12-19T02:50:57.574Z,68.79
2016-12-19T02:51:57.593Z,68.98
2016-12-19T02:52:57.919Z,68.32
2016-12-19T02:53:57.618Z,68.98
2016-12-19T02:54:57.633Z,69.36
2016-12-19T02:55:57.977Z,69.13
2016-12-19T02:56:57.659Z,69.52
2016-12-19T02:57:57.672Z,69.17
2016-12-19T02:58:57.700Z,69.27
2016-12-19T02:59:58.016Z,69.27
2016-12-19T03:00:58.033Z,69.61
2016-12-19T03:01:58.044Z,69.61
2016-12-19T03:02:57.752Z,69.9
2016-12-19T03:03:57.756Z,69.65
2016-12-19T03:04:58.096Z,69.55
2016-12-19T03:05:57.784Z,69.27
2016-12-19T03:06:58.122Z,69.17
2016-12-19T03:07:58.127Z,69.27
2016-12-19T03:08:57.828Z,69.08
2016-12-19T03:09:58.166Z,69.27
2016-12-19T03:10:57.853Z,69.08
2016-12-19T03:11:57.867Z,68.89
2016-12-19T03:12:58.217Z,69.61
2016-12-19T03:13:57.918Z,70.09
2016-12-19T03:14:58.233Z,70.28
2016-12-19T03:15:57.921Z,69.84
2016-12-19T03:16:57.944Z,69.36
2016-12-19T03:17:57.949Z,69.27
2016-12-19T03:18:58.311Z,69.08
2016-12-19T03:19:58.293Z,69.74
2016-12-19T03:20:58.321Z,69.74
2016-12-19T03:21:58.320Z,69.65
2016-12-19T03:22:58.016Z,69.93
2016-12-19T03:23:58.344Z,69.55
2016-12-19T03:24:58.390Z,68.6
2016-12-19T03:25:58.372Z,68.6
2016-12-19T03:26:58.396Z,69.08
2016-12-19T03:27:58.085Z,69.17
2016-12-19T03:28:58.418Z,68.32
2016-12-19T03:29:58.113Z,68.51
2016-12-19T03:30:58.445Z,68.41
2016-12-19T03:31:58.142Z,68.7
2016-12-19T03:32:58.158Z,68.23
2016-12-19T03:33:58.167Z,68.41
2016-12-19T03:34:58.498Z,68.6
2016-12-19T03:35:58.203Z,69.36
2016-12-19T03:36:58.216Z,69.27
2016-12-19T03:37:58.226Z,68.98
2016-12-19T03:38:58.254Z,68.6
2016-12-19T03:39:58.250Z,68.51
2016-12-19T03:40:58.266Z,69.17
2016-12-19T03:41:58.595Z,69.17
2016-12-19T03:42:58.614Z,68.51
2016-12-19T03:43:58.304Z,68.51
2016-12-19T03:44:58.330Z,67.94
2016-12-19T03:45:58.659Z,68.32
2016-12-19T03:46:58.679Z,68.41
2016-12-19T03:47:58.677Z,68.51
2016-12-19T03:48:58.693Z,68.51
2016-12-19T03:49:58.709Z,68.41
2016-12-19T03:50:58.734Z,68.32
2016-12-19T03:51:58.417Z,68.32
2016-12-19T03:52:58.747Z,68.51
2016-12-19T03:53:58.444Z,68.41
2016-12-19T03:54:58.465Z,68.51
2016-12-19T03:55:58.787Z,68.51
2016-12-19T03:56:58.813Z,68.6
2016-12-19T03:57:58.502Z,68.51
2016-12-19T03:58:58.841Z,68.23
2016-12-19T03:59:58.842Z,68.23
2016-12-19T04:00:58.548Z,68.23
2016-12-19T04:01:58.873Z,68.23
2016-12-19T04:02:58.568Z,68.51
2016-12-19T04:03:58.585Z,67.46
2016-12-19T04:04:58.618Z,67.56
2016-12-19T04:05:58.927Z,66.89
2016-12-19T04:06:58.937Z,67.75
2016-12-19T04:07:58.952Z,67.75
2016-12-19T04:08:58.658Z,67.85
2016-12-19T04:09:58.663Z,68.6
2016-12-19T04:10:58.994Z,68.32
2016-12-19T04:11:59.008Z,68.51
2016-12-19T04:12:58.708Z,69.23
2016-12-19T04:13:58.724Z,69.13
2016-12-19T04:14:59.057Z,68.41
2016-12-19T04:15:59.065Z,68.32
2016-12-19T04:16:58.762Z,68.51
2016-12-19T04:17:59.090Z,68.7
2016-12-19T04:18:58.806Z,68.32
2016-12-19T04:19:58.817Z,69.33
2016-12-19T04:20:59.134Z,68.95
2016-12-19T04:21:59.152Z,69.13
2016-12-19T04:22:59.158Z,69.71
2016-12-19T04:23:59.174Z,69.8
2016-12-19T04:24:59.187Z,69.17
2016-12-19T04:25:59.203Z,69.17
2016-12-19T04:26:59.216Z,69.36
2016-12-19T04:27:58.917Z,69.46
2016-12-19T04:28:59.243Z,69.36
2016-12-19T04:29:59.258Z,69.36
2016-12-19T04:30:58.956Z,69.27
2016-12-19T04:31:59.288Z,68.89
2016-12-19T04:32:59.294Z,68.7
2016-12-19T04:33:59.311Z,69.04
2016-12-19T04:34:59.009Z,69.27
2016-12-19T04:35:59.339Z,69.52
2016-12-19T04:36:59.356Z,70.18
2016-12-19T04:37:59.369Z,70.37
2016-12-19T04:38:59.383Z,69.93
2016-12-19T04:39:59.395Z,69.74
2016-12-19T04:40:59.098Z,69.27
2016-12-19T04:41:59.108Z,69.17
2016-12-19T04:42:59.431Z,68.23
2016-12-19T04:43:59.136Z,68.76
2016-12-19T04:44:59.465Z,69.27
2016-12-19T04:45:59.476Z,68.89
2016-12-19T04:46:59.175Z,69.08
2016-12-19T04:47:59.189Z,69.36
2016-12-19T04:48:59.202Z,68.41
2016-12-19T04:49:59.212Z,68.32
2016-12-19T04:50:59.226Z,68.6
2016-12-19T04:51:59.241Z,68.85
2016-12-19T04:52:59.572Z,69.13
2016-12-19T04:53:59.583Z,69.52
2016-12-19T04:54:59.285Z,69.9
2016-12-19T04:55:59.299Z,69.42
2016-12-19T04:56:59.309Z,69.42
2016-12-19T04:57:59.329Z,69.33
2016-12-19T04:58:59.334Z,69.04
2016-12-19T04:59:59.353Z,69.33
2016-12-19T05:00:59.365Z,69.33
2016-12-19T05:01:59.693Z,68.41
2016-12-19T05:02:59.392Z,68.38
2016-12-19T05:03:59.721Z,69.13
2016-12-19T05:04:59.421Z,69.52
2016-12-19T05:05:59.435Z,69.04
2016-12-19T05:06:59.765Z,69.13
2016-12-19T05:07:59.779Z,69.08
2016-12-19T05:08:59.483Z,68.79
2016-12-19T05:09:59.823Z,68.7
2016-12-19T05:10:59.824Z,68.41
2016-12-19T05:11:59.834Z,68.41
2016-12-19T05:12:59.849Z,68.51
2016-12-19T05:13:59.547Z,67.46
2016-12-19T05:14:59.875Z,67.37
2016-12-19T05:15:59.893Z,68.29
2016-12-19T05:16:59.903Z,68.48
2016-12-19T05:17:59.917Z,68.38
2016-12-19T05:18:59.928Z,68.57
2016-12-19T05:19:59.948Z,69.33
2016-12-19T05:20:59.956Z,69.42
2016-12-19T05:21:59.970Z,69.04
2016-12-19T05:22:59.670Z,69.71
2016-12-19T05:23:59.697Z,69.42
2016-12-19T05:24:59.710Z,69.13
2016-12-19T05:26:00.027Z,69.23
2016-12-19T05:27:00.040Z,69.23
2016-12-19T05:28:00.052Z,69.17
2016-12-19T05:29:00.069Z,69.08
2016-12-19T05:29:59.767Z,68.6
2016-12-19T05:31:00.098Z,68.32
2016-12-19T05:31:59.792Z,67.94
2016-12-19T05:32:59.805Z,68.29
2016-12-19T05:33:59.820Z,68.29
2016-12-19T05:35:00.148Z,68.76
2016-12-19T05:36:00.163Z,68.38
2016-12-19T05:36:59.858Z,68.32
2016-12-19T05:38:00.189Z,67.65
2016-12-19T05:38:59.889Z,67.65
2016-12-19T05:40:00.220Z,67.46
2016-12-19T05:41:00.259Z,66.99
2016-12-19T05:41:59.928Z,67.33
2016-12-19T05:42:59.946Z,67.85
2016-12-19T05:44:00.274Z,68.38
2016-12-19T05:44:59.968Z,68.13
2016-12-19T05:45:59.987Z,68.04
2016-12-19T05:46:59.999Z,68.41
2016-12-19T05:48:00.330Z,68.32
2016-12-19T05:49:00.023Z,68.32
2016-12-19T05:50:00.352Z,68.04
2016-12-19T05:51:00.367Z,67.56
2016-12-19T05:52:00.379Z,68.13
2016-12-19T05:53:00.398Z,68.23
2016-12-19T05:54:00.408Z,68.04
2016-12-19T05:55:00.106Z,67.94
2016-12-19T05:56:00.125Z,67.85
2016-12-19T05:57:00.447Z,68.48
2016-12-19T05:58:00.147Z,68.57
2016-12-19T05:59:00.473Z,68.04
2016-12-19T06:00:00.491Z,68.04
2016-12-19T06:01:00.188Z,68.13
2016-12-19T06:02:00.203Z,68.41
2016-12-19T06:03:00.221Z,68.04
2016-12-19T06:04:00.541Z,67.85
2016-12-19T06:05:00.557Z,68.41
2016-12-19T06:06:00.576Z,67.94
2016-12-19T06:07:00.584Z,68.04
2016-12-19T06:08:00.305Z,67.56
2016-12-19T06:09:00.613Z,67.56
2016-12-19T06:10:00.311Z,67.37
2016-12-19T06:11:00.649Z,67.75
2016-12-19T06:12:00.654Z,67.37
2016-12-19T06:13:00.671Z,67.27
2016-12-19T06:14:00.368Z,67.18
2016-12-19T06:15:00.399Z,67.9
2016-12-19T06:16:00.710Z,68
2016-12-19T06:17:00.407Z,68.38
2016-12-19T06:18:00.418Z,68.76
2016-12-19T06:19:00.749Z,69.23
2016-12-19T06:20:00.764Z,69.9
2016-12-19T06:21:00.776Z,69.9
2016-12-19T06:22:00.795Z,69.71
2016-12-19T06:23:00.804Z,69.9
2016-12-19T06:24:00.817Z,69.52
2016-12-19T06:25:00.838Z,69.52
2016-12-19T06:26:00.531Z,69.71
2016-12-19T06:27:00.542Z,69.42
2016-12-19T06:28:00.875Z,69.8
2016-12-19T06:29:00.586Z,69.61
2016-12-19T06:30:00.598Z,69.33
2016-12-19T06:31:00.598Z,69.04
2016-12-19T06:32:00.609Z,69.04
2016-12-19T06:33:00.938Z,68.41
2016-12-19T06:34:00.951Z,68.41
2016-12-19T06:35:00.967Z,68.6
2016-12-19T06:36:00.981Z,68.13
2016-12-19T06:37:00.995Z,68.32
2016-12-19T06:38:00.691Z,68.51
2016-12-19T06:39:01.022Z,68.41
2016-12-19T06:40:01.034Z,68.6
2016-12-19T06:41:00.735Z,68.51
2016-12-19T06:42:01.066Z,68.32
2016-12-19T06:43:01.075Z,67.85
2016-12-19T06:44:01.089Z,68.23
2016-12-19T06:45:00.791Z,68.32
2016-12-19T06:46:01.120Z,67.94
2016-12-19T06:47:01.143Z,68.1
2016-12-19T06:48:01.146Z,68.48
2016-12-19T06:49:00.875Z,68.41
2016-12-19T06:50:00.857Z,68.32
2016-12-19T06:51:00.875Z,68.51
2016-12-19T06:52:01.202Z,68.13
2016-12-19T06:53:00.901Z,67.46
2016-12-19T06:54:00.912Z,67.46
2016-12-19T06:55:00.929Z,67.46
2016-12-19T06:56:00.939Z,68.13
2016-12-19T06:57:01.271Z,68.7
2016-12-19T06:58:01.280Z,68.23
2016-12-19T06:59:01.301Z,68.76
2016-12-19T07:00:00.996Z,69.33
2016-12-19T07:01:01.008Z,69.04
2016-12-19T07:02:01.024Z,69.04
2016-12-19T07:03:01.035Z,69.23
2016-12-19T07:04:01.367Z,68.76
2016-12-19T07:05:01.067Z,68.48
2016-12-19T07:06:01.393Z,68.13
2016-12-19T07:07:01.090Z,68.41
2016-12-19T07:08:01.107Z,68.1
2016-12-19T07:09:01.434Z,68.57
2016-12-19T07:10:01.452Z,68.41
2016-12-19T07:11:01.146Z,68.23
2016-12-19T07:12:01.163Z,68.6
2016-12-19T07:13:01.489Z,67.85
2016-12-19T07:14:01.191Z,67.94
2016-12-19T07:15:01.519Z,68.6
2016-12-19T07:16:01.215Z,67.94
2016-12-19T07:17:01.230Z,67.46
2016-12-19T07:18:01.243Z,67.94
2016-12-19T07:19:01.575Z,67.85
2016-12-19T07:20:01.292Z,67.56
2016-12-19T07:21:01.601Z,67.37
2016-12-19T07:22:01.615Z,67.65
2016-12-19T07:23:01.315Z,67.75
2016-12-19T07:24:01.326Z,68.04
2016-12-19T07:25:01.342Z,68.41
2016-12-19T07:26:01.671Z,67.94
2016-12-19T07:27:01.683Z,67.94
2016-12-19T07:28:01.383Z,68.23
2016-12-19T07:29:01.711Z,67.65
2016-12-19T07:30:01.730Z,67.27
2016-12-19T07:31:01.423Z,67.27
2016-12-19T07:32:01.755Z,66.8
2016-12-19T07:33:01.768Z,66.99
2016-12-19T07:34:01.480Z,66.99
2016-12-19T07:35:01.491Z,67.46
2016-12-19T07:36:01.493Z,66.71
2016-12-19T07:37:01.824Z,66.61
2016-12-19T07:38:01.522Z,66.8
2016-12-19T07:39:01.848Z,66.71
2016-12-19T07:40:01.550Z,67.46
2016-12-19T07:41:01.882Z,66.99
2016-12-19T07:42:01.578Z,66.99
2016-12-19T07:43:01.906Z,67.65
2016-12-19T07:44:01.606Z,67.27
2016-12-19T07:45:01.955Z,67.08
2016-12-19T07:46:01.953Z,67.46
2016-12-19T07:47:01.966Z,67.56
2016-12-19T07:48:01.977Z,67.56
2016-12-19T07:49:01.992Z,67.27
2016-12-19T07:50:01.715Z,66.89
2016-12-19T07:51:01.703Z,67.27
2016-12-19T07:52:02.037Z,67.08
2016-12-19T07:53:02.049Z,67.46
2016-12-19T07:54:01.770Z,67.27
2016-12-19T07:55:01.764Z,67.46
2016-12-19T07:56:02.084Z,67.27
2016-12-19T07:57:01.793Z,67.56
2016-12-19T07:58:01.799Z,67.37
2016-12-19T07:59:02.143Z,67.18
2016-12-19T08:00:01.828Z,67.08
2016-12-19T08:01:02.157Z,67.85
2016-12-19T08:02:01.857Z,67.75
2016-12-19T08:03:02.208Z,67.85
2016-12-19T08:04:02.198Z,67.65
2016-12-19T08:05:01.897Z,66.99
2016-12-19T08:06:01.913Z,67.37
2016-12-19T08:07:01.923Z,67.56
2016-12-19T08:08:02.255Z,67.85
2016-12-19T08:09:02.268Z,67.37
2016-12-19T08:10:01.970Z,67.37
2016-12-19T08:11:01.981Z,67.65
2016-12-19T08:12:02.311Z,66.89
2016-12-19T08:13:02.008Z,67.27
2016-12-19T08:14:02.338Z,67.37
2016-12-19T08:15:02.353Z,67.46
2016-12-19T08:16:02.540Z,67.27
2016-12-19T08:17:02.155Z,67.18
2016-12-19T08:18:02.078Z,67.27
2016-12-19T08:19:02.410Z,66.99
2016-12-19T08:20:02.107Z,66.61
2016-12-19T08:21:02.437Z,66.99
2016-12-19T08:22:02.452Z,67.08
2016-12-19T08:23:02.463Z,67.18
2016-12-19T08:24:02.477Z,66.99
2016-12-19T08:25:02.380Z,66.61
2016-12-19T08:26:02.505Z,67.27
2016-12-19T08:27:02.527Z,66.42
2016-12-19T08:28:02.219Z,66.42
2016-12-19T08:29:02.551Z,66.99
2016-12-19T08:30:02.246Z,67.27
2016-12-19T08:31:02.572Z,67.56
2016-12-19T08:32:02.589Z,67.75
2016-12-19T08:33:02.296Z,67.56
2016-12-19T08:34:02.302Z,67.27
2016-12-19T08:35:02.824Z,67.56
2016-12-19T08:36:02.645Z,67.37
2016-12-19T08:37:02.661Z,67.08
2016-12-19T08:38:02.356Z,67.18
2016-12-19T08:39:02.688Z,67.75
2016-12-19T08:40:02.700Z,67.65
2016-12-19T08:41:02.428Z,67.27
2016-12-19T08:42:02.759Z,66.71
2016-12-19T08:43:02.427Z,67.08
2016-12-19T08:44:02.756Z,67.56
2016-12-19T08:45:02.479Z,67.56
2016-12-19T08:46:02.809Z,66.99
2016-12-19T08:47:02.512Z,67.56
2016-12-19T08:48:02.812Z,66.89
2016-12-19T08:49:02.822Z,66.71
2016-12-19T08:50:02.845Z,66.61
2016-12-19T08:51:02.852Z,67.27
2016-12-19T08:52:02.864Z,67.56
2016-12-19T08:53:02.563Z,66.99
2016-12-19T08:54:02.592Z,66.99
2016-12-19T08:55:02.956Z,67.08
2016-12-19T08:56:02.929Z,66.99
2016-12-19T08:57:02.934Z,66.71
2016-12-19T08:58:02.944Z,66.42
2016-12-19T08:59:02.645Z,66.61
2016-12-19T09:00:02.658Z,66.42
2016-12-19T09:01:03.003Z,65.95
2016-12-19T09:02:03.003Z,66.23
2016-12-19T09:03:03.016Z,66.33
2016-12-19T09:04:03.033Z,66.52
2016-12-19T09:05:02.729Z,66.89
2016-12-19T09:06:02.743Z,66.42
2016-12-19T09:07:02.756Z,66.52
2016-12-19T09:08:03.097Z,66.61
2016-12-19T09:09:02.796Z,67.27
2016-12-19T09:10:03.113Z,66.8
2016-12-19T09:11:02.810Z,67.08
2016-12-19T09:12:03.140Z,67.27
2016-12-19T09:13:03.150Z,67.37
2016-12-19T09:14:03.167Z,67.46
2016-12-19T09:15:02.866Z,66.99
2016-12-19T09:16:02.879Z,67.37
2016-12-19T09:17:03.211Z,67.65
2016-12-19T09:18:03.220Z,66.61
2016-12-19T09:19:03.254Z,66.99
2016-12-19T09:20:02.935Z,66.71
2016-12-19T09:21:02.956Z,66.04
2016-12-19T09:22:02.962Z,66.8
2016-12-19T09:23:02.976Z,66.99
2016-12-19T09:24:03.303Z,66.52
2016-12-19T09:25:03.320Z,67.08
2016-12-19T09:26:03.018Z,66.52
2016-12-19T09:27:03.031Z,66.99
2016-12-19T09:28:03.047Z,66.04
2016-12-19T09:29:03.376Z,66.23
2016-12-19T09:30:03.398Z,66.42
2016-12-19T09:31:03.403Z,66.33
2016-12-19T09:32:03.104Z,66.61
2016-12-19T09:33:03.114Z,66.52
2016-12-19T09:34:03.453Z,66.33
2016-12-19T09:35:03.140Z,66.33
2016-12-19T09:36:03.157Z,66.8
2016-12-19T09:37:03.198Z,67.08
2016-12-19T09:38:03.498Z,66.8
2016-12-19T09:39:03.202Z,66.52
2016-12-19T09:40:03.531Z,66.33
2016-12-19T09:41:03.227Z,66.71
2016-12-19T09:42:03.243Z,67.56
2016-12-19T09:43:03.576Z,67.08
2016-12-19T09:44:03.271Z,66.89
2016-12-19T09:45:03.284Z,67.18
2016-12-19T09:46:03.614Z,66.42
2016-12-19T09:47:03.625Z,66.33
2016-12-19T09:48:03.668Z,66.14
2016-12-19T09:49:03.339Z,66.23
2016-12-19T09:50:03.353Z,66.04
2016-12-19T09:51:03.682Z,65.85
2016-12-19T09:52:03.698Z,66.42
2016-12-19T09:53:03.710Z,66.71
2016-12-19T09:54:03.409Z,66.42
2016-12-19T09:55:03.741Z,66.61
2016-12-19T09:56:03.439Z,66.8
2016-12-19T09:57:03.766Z,66.36
2016-12-19T09:58:03.783Z,65.98
2016-12-19T09:59:03.483Z,65.22
2016-12-19T10:00:03.494Z,65.47
2016-12-19T10:01:03.824Z,64.71
2016-12-19T10:02:03.521Z,65.85
2016-12-19T10:03:03.853Z,66.04
2016-12-19T10:04:03.548Z,66.33
2016-12-19T10:05:03.879Z,66.23
2016-12-19T10:06:03.892Z,65.85
2016-12-19T10:07:03.593Z,65.75
2016-12-19T10:08:03.603Z,66.42
2016-12-19T10:09:03.936Z,66.71
2016-12-19T10:10:03.950Z,66.52
2016-12-19T10:11:03.963Z,66.61
2016-12-19T10:12:03.975Z,66.71
2016-12-19T10:13:03.992Z,66.23
2016-12-19T10:14:04.005Z,66.61
2016-12-19T10:15:03.707Z,66.8
2016-12-19T10:16:04.033Z,65.95
2016-12-19T10:17:03.733Z,66.42
2016-12-19T10:18:04.062Z,66.71
2016-12-19T10:19:03.762Z,66.89
2016-12-19T10:20:04.092Z,66.42
2016-12-19T10:21:03.785Z,66.42
2016-12-19T10:22:03.802Z,66.52
2016-12-19T10:23:03.817Z,66.33
2016-12-19T10:24:03.829Z,66.52
2016-12-19T10:25:03.846Z,66.89
2016-12-19T10:26:04.171Z,67.27
2016-12-19T10:27:03.871Z,66.61
2016-12-19T10:28:03.898Z,66.71
2016-12-19T10:29:04.214Z,66.61
2016-12-19T10:30:03.913Z,67.18
2016-12-19T10:31:04.244Z,66.8
2016-12-19T10:32:04.258Z,66.71
2016-12-19T10:33:04.270Z,66.71
2016-12-19T10:34:04.280Z,67.08
2016-12-19T10:35:04.298Z,67.37
2016-12-19T10:36:04.314Z,67.56
2016-12-19T10:37:04.325Z,66.8
2016-12-19T10:38:04.026Z,66.89
2016-12-19T10:39:04.355Z,66.71
2016-12-19T10:40:04.058Z,66.61
2016-12-19T10:41:04.381Z,66.61
2016-12-19T10:42:04.086Z,66.71
2016-12-19T10:43:04.410Z,66.42
2016-12-19T10:44:04.107Z,66.52
2016-12-19T10:45:04.436Z,66.71
2016-12-19T10:46:04.136Z,66.33
2016-12-19T10:47:04.466Z,66.04
2016-12-19T10:48:04.163Z,66.14
2016-12-19T10:49:04.179Z,66.42
2016-12-19T10:50:04.192Z,66.14
2016-12-19T10:51:04.524Z,65.19
2016-12-19T10:52:04.541Z,65.75
2016-12-19T10:53:04.236Z,65.95
2016-12-19T10:54:04.247Z,65.75
2016-12-19T10:55:04.577Z,65.6
2016-12-19T10:56:04.275Z,64.71
2016-12-19T10:57:04.316Z,64.52
2016-12-19T10:58:04.622Z,65.95
2016-12-19T10:59:04.639Z,66.71
2016-12-19T11:00:04.332Z,66.23
2016-12-19T11:01:04.659Z,65.66
2016-12-19T11:02:04.394Z,65.95
2016-12-19T11:03:04.686Z,66.42
2016-12-19T11:04:04.387Z,66.52
2016-12-19T11:05:04.718Z,66.42
2016-12-19T11:06:04.727Z,66.8
2016-12-19T11:07:04.752Z,66.42
2016-12-19T11:08:04.443Z,65.95
2016-12-19T11:09:04.462Z,66.33
2016-12-19T11:10:04.475Z,66.8
2016-12-19T11:11:04.499Z,67.08
2016-12-19T11:12:04.816Z,66.71
2016-12-19T11:13:04.831Z,66.99
2016-12-19T11:14:04.526Z,67.18
2016-12-19T11:15:04.860Z,67.37
2016-12-19T11:16:04.872Z,66.99
2016-12-19T11:17:04.881Z,67.65
2016-12-19T11:18:04.584Z,67.18
2016-12-19T11:19:04.913Z,67.56
2016-12-19T11:20:04.926Z,67.27
2016-12-19T11:21:04.627Z,67.46
2016-12-19T11:22:04.640Z,67.08
2016-12-19T11:23:04.652Z,67.27
2016-12-19T11:24:04.984Z,66.99
2016-12-19T11:25:04.684Z,66.42
2016-12-19T11:26:05.052Z,66.61
2016-12-19T11:27:05.027Z,66.52
2016-12-19T11:28:04.802Z,66.61
2016-12-19T11:29:05.060Z,67.18
2016-12-19T11:30:05.140Z,66.99
2016-12-19T11:31:04.765Z,67.08
2016-12-19T11:32:04.781Z,66.99
2016-12-19T11:33:05.112Z,66.61
2016-12-19T11:34:04.861Z,66.42
2016-12-19T11:35:05.135Z,66.89
2016-12-19T11:36:05.165Z,66.61
2016-12-19T11:37:05.204Z,66.52
2016-12-19T11:38:05.178Z,66.52
2016-12-19T11:39:05.192Z,66.52
2016-12-19T11:40:04.894Z,66.42
2016-12-19T11:41:05.224Z,66.42
2016-12-19T11:42:04.922Z,66.33
2016-12-19T11:43:05.250Z,66.52
2016-12-19T11:44:04.952Z,66.89
2016-12-19T11:45:04.961Z,67.37
2016-12-19T11:46:04.976Z,67.08
2016-12-19T11:47:05.306Z,67.27
2016-12-19T11:48:05.002Z,66.89
2016-12-19T11:49:05.336Z,66.99
2016-12-19T11:50:05.030Z,66.33
2016-12-19T11:51:05.044Z,66.42
2016-12-19T11:52:05.376Z,67.08
2016-12-19T11:53:05.387Z,66.99
2016-12-19T11:54:05.085Z,67.18
2016-12-19T11:55:05.100Z,67.56
2016-12-19T11:56:05.112Z,67.65
2016-12-19T11:57:05.447Z,67.75
2016-12-19T11:58:05.461Z,67.18
2016-12-19T11:59:05.474Z,66.8
2016-12-19T12:00:05.176Z,66.52
2016-12-19T12:01:05.502Z,67.08
2016-12-19T12:02:05.208Z,67.18
2016-12-19T12:03:05.528Z,66.99
2016-12-19T12:04:05.541Z,67.08
2016-12-19T12:05:05.556Z,67.43
2016-12-19T12:06:05.571Z,67.56
2016-12-19T12:07:05.270Z,67.56
2016-12-19T12:08:05.593Z,66.8
2016-12-19T12:09:05.613Z,66.61
2016-12-19T12:10:05.311Z,67.08
2016-12-19T12:11:05.638Z,67.18
2016-12-19T12:12:05.661Z,66.42
2016-12-19T12:13:05.667Z,66.71
2016-12-19T12:14:05.367Z,66.71
2016-12-19T12:15:05.381Z,67.27
2016-12-19T12:16:05.710Z,66.52
2016-12-19T12:17:05.408Z,66.33
2016-12-19T12:18:05.737Z,66.52
2016-12-19T12:19:05.751Z,65.85
2016-12-19T12:20:05.768Z,65.37
2016-12-19T12:21:05.467Z,65.95
2016-12-19T12:22:05.796Z,65.75
2016-12-19T12:23:05.806Z,65.75
2016-12-19T12:24:05.821Z,66.52
2016-12-19T12:25:05.839Z,66.71
2016-12-19T12:26:05.850Z,66.99
2016-12-19T12:27:05.870Z,67.46
2016-12-19T12:28:05.562Z,67.46
2016-12-19T12:29:05.891Z,67.37
2016-12-19T12:30:05.589Z,66.99
2016-12-19T12:31:05.617Z,67.37
2016-12-19T12:32:05.629Z,67.27
2016-12-19T12:33:05.947Z,67.75
2016-12-19T12:34:05.647Z,67.37
2016-12-19T12:35:05.974Z,67.56
2016-12-19T12:36:05.675Z,67.37
2016-12-19T12:37:06.006Z,67.46
2016-12-19T12:38:05.702Z,66.99
2016-12-19T12:39:06.031Z,67.56
2016-12-19T12:40:06.046Z,66.8
2016-12-19T12:41:05.743Z,66.99
2016-12-19T12:42:06.075Z,66.71
2016-12-19T12:43:06.090Z,66.71
2016-12-19T12:44:05.787Z,65.66
2016-12-19T12:45:06.125Z,66.52
2016-12-19T12:46:05.819Z,67.27
2016-12-19T12:47:06.146Z,66.8
2016-12-19T12:48:05.845Z,67.27
2016-12-19T12:49:05.860Z,66.61
2016-12-19T12:50:06.191Z,66.33
2016-12-19T12:51:05.886Z,66.89
2016-12-19T12:52:06.214Z,65.85
2016-12-19T12:53:05.916Z,65.66
2016-12-19T12:54:05.927Z,65.47
2016-12-19T12:55:06.270Z,65.56
2016-12-19T12:56:05.953Z,65.66